Time;durP1;ratioP1;P1;durP2;ratioP2;P2;SDS_P1;SDS_P2;PMS_P1;PMS_P2;Temp;Humidity;BMP_temperature;BMP_pressure;BME280_temperature;BME280_humidity;BME280_pressure;Samples;Min_cycle;Max_cycle;Signal;HPM_P1;HPM_P2
2023/05/13 00:01:37;;;;;;;2.17;2.08;;;;;;;22.51;37.31;100914.34;4513074;28;20329;-66
2023/05/13 00:03:47;;;;;;;2.22;2.03;;;;;;;22.52;37.52;100914.00;4512961;28;20084;-66
2023/05/13 00:05:58;;;;;;;2.10;1.90;;;;;;;22.54;37.16;100920.22;4513378;28;20040;-66
2023/05/13 00:08:10;;;;;;;2.38;2.08;;;;;;;22.47;37.39;100907.66;4512963;28;20029;-66
2023/05/13 00:10:21;;;;;;;2.38;1.90;;;;;;;22.52;37.84;100916.03;4513492;28;20148;-66
2023/05/13 00:12:31;;;;;;;2.05;1.95;;;;;;;22.53;37.69;100923.47;4516377;28;20201;-65
2023/05/13 00:14:42;;;;;;;2.00;1.80;;;;;;;22.52;37.59;100925.50;4516373;28;20034;-66
2023/05/13 00:16:52;;;;;;;2.00;1.90;;;;;;;22.51;37.79;100920.09;4515986;28;20052;-66
2023/05/13 00:19:02;;;;;;;2.08;1.90;;;;;;;22.48;37.49;100906.44;4515957;28;20064;-66
2023/05/13 00:21:13;;;;;;;2.10;1.90;;;;;;;22.51;37.72;100925.84;4515341;28;20042;-66
2023/05/13 00:23:23;;;;;;;2.17;1.98;;;;;;;22.50;37.92;100912.69;4516375;28;20087;-65
2023/05/13 00:25:34;;;;;;;2.17;1.98;;;;;;;22.49;37.74;100922.50;4516772;28;20073;-66
2023/05/13 00:27:44;;;;;;;2.20;2.00;;;;;;;22.50;37.76;100918.44;4516246;28;20091;-66
2023/05/13 00:29:55;;;;;;;2.30;2.10;;;;;;;22.51;37.57;100915.19;4515845;28;20042;-66
2023/05/13 00:32:05;;;;;;;2.10;2.00;;;;;;;22.50;37.84;100915.56;4515016;28;20034;-66
2023/05/13 00:34:17;;;;;;;2.10;2.00;;;;;;;22.50;37.54;100912.69;4514378;28;20551;-66
2023/05/13 00:36:28;;;;;;;2.30;2.10;;;;;;;22.50;37.48;100918.44;4515221;28;20585;-66
2023/05/13 00:38:38;;;;;;;2.30;2.10;;;;;;;22.46;37.60;100908.84;4516041;28;20120;-66
2023/05/13 00:40:49;;;;;;;2.17;2.00;;;;;;;22.48;37.78;100915.09;4515736;28;20084;-66
2023/05/13 00:42:59;;;;;;;2.22;2.03;;;;;;;22.46;37.92;100906.81;4498052;28;20034;-65
2023/05/13 00:45:10;;;;;;;2.17;1.98;;;;;;;22.49;37.46;100917.59;4516434;28;20076;-66
2023/05/13 00:47:21;;;;;;;2.22;1.90;;;;;;;22.49;37.70;100916.75;4514238;28;20037;-65
2023/05/13 00:49:35;;;;;;;1.90;1.80;;;;;;;22.47;37.57;100913.44;4514653;28;20029;-66
2023/05/13 00:51:45;;;;;;;2.17;1.92;;;;;;;22.48;37.77;100921.69;4515746;28;20033;-66
2023/05/13 00:53:57;;;;;;;1.95;1.85;;;;;;;22.45;37.31;100915.81;4497468;28;20469;-66
2023/05/13 00:56:08;;;;;;;2.17;1.98;;;;;;;22.47;37.49;100924.94;4513491;28;20047;-66
2023/05/13 00:58:18;;;;;;;1.95;1.80;;;;;;;22.48;37.50;100926.59;4515546;28;20036;-66
2023/05/13 01:00:31;;;;;;;1.90;1.80;;;;;;;22.33;37.70;100899.50;4489883;28;20129;-66
2023/05/13 01:03:04;;;;;;;2.00;1.80;;;;;;;22.47;37.27;100922.06;4497885;28;20046;-66
2023/05/13 01:05:48;;;;;;;2.35;1.80;;;;;;;22.45;37.07;100915.81;4497559;28;20570;-65
2023/05/13 01:08:16;;;;;;;2.20;1.98;;;;;;;22.46;37.29;100923.25;4473887;28;20611;-66
2023/05/13 01:10:45;;;;;;;2.13;1.92;;;;;;;22.47;37.02;100920.00;4515745;28;20025;-65
2023/05/13 01:13:02;;;;;;;2.20;2.00;;;;;;;22.44;36.53;100922.81;4498004;28;20146;-66
2023/05/13 01:15:21;;;;;;;2.25;2.05;;;;;;;22.43;36.44;100924.00;4515887;28;20103;-65
2023/05/13 01:17:40;;;;;;;2.22;2.03;;;;;;;22.43;36.53;100918.22;4515851;28;20112;-65
2023/05/13 01:19:56;;;;;;;2.33;2.13;;;;;;;22.44;36.45;100923.63;4515567;28;20041;-66
2023/05/13 01:22:07;;;;;;;2.20;2.00;;;;;;;22.31;36.38;100892.47;4496860;28;20096;-65
2023/05/13 01:24:17;;;;;;;2.10;1.90;;;;;;;22.45;36.55;100922.44;4514690;28;20564;-66
2023/05/13 01:26:28;;;;;;;2.08;1.95;;;;;;;22.43;36.53;100919.06;4514989;28;20470;-65
2023/05/13 01:28:39;;;;;;;2.15;1.95;;;;;;;22.38;36.66;100916.47;4513821;28;20131;-65
2023/05/13 01:30:50;;;;;;;2.22;1.98;;;;;;;22.44;36.89;100922.81;4513099;28;20152;-66
2023/05/13 01:33:02;;;;;;;2.50;2.15;;;;;;;22.43;36.23;100919.06;4512346;28;20089;-65
2023/05/13 01:35:15;;;;;;;2.00;1.90;;;;;;;22.41;36.44;100921.47;4512679;28;20173;-65
2023/05/13 01:37:29;;;;;;;2.17;1.92;;;;;;;22.44;36.43;100922.81;4515266;28;20448;-65
2023/05/13 01:39:40;;;;;;;2.00;1.77;;;;;;;22.41;36.40;100923.50;4472056;28;20341;-65
2023/05/13 01:41:56;;;;;;;1.98;1.80;;;;;;;22.39;35.91;100923.88;4513771;28;20105;-65
2023/05/13 01:44:07;;;;;;;2.20;2.00;;;;;;;22.40;36.09;100918.97;4513579;28;20065;-65
2023/05/13 01:46:18;;;;;;;2.17;1.98;;;;;;;22.41;36.03;100926.38;4497124;28;20036;-66
2023/05/13 01:48:28;;;;;;;2.30;2.10;;;;;;;22.40;35.70;100918.97;4513552;28;20052;-65
2023/05/13 01:50:39;;;;;;;1.98;1.85;;;;;;;22.41;35.60;100924.34;4496030;28;20129;-65
2023/05/13 01:52:50;;;;;;;2.33;2.10;;;;;;;22.41;36.22;100926.38;4513569;28;20037;-65
2023/05/13 01:55:00;;;;;;;1.75;1.65;;;;;;;22.40;36.06;100919.81;4513603;28;20049;-65
2023/05/13 01:57:11;;;;;;;2.03;1.83;;;;;;;22.40;35.98;100914.06;4513255;28;20041;-65
2023/05/13 01:59:22;;;;;;;1.90;1.80;;;;;;;22.41;35.93;100926.38;4496592;28;20042;-65
2023/05/13 02:01:32;;;;;;;1.85;1.75;;;;;;;22.37;36.32;100914.81;4489262;28;20034;-65
2023/05/13 02:03:43;;;;;;;2.10;1.90;;;;;;;22.38;36.09;100919.34;4497140;28;20065;-66
2023/05/13 02:05:54;;;;;;;1.70;1.60;;;;;;;22.38;35.85;100921.38;4514043;28;20025;-65
2023/05/13 02:08:05;;;;;;;1.70;1.60;;;;;;;22.39;36.05;100923.88;4514977;28;20045;-65
2023/05/13 02:10:16;;;;;;;1.80;1.70;;;;;;;22.39;36.09;100920.19;4515074;28;20040;-65
2023/05/13 02:12:26;;;;;;;1.98;1.88;;;;;;;22.38;35.84;100927.97;4514511;28;20633;-66
2023/05/13 02:14:37;;;;;;;1.90;1.80;;;;;;;22.40;35.85;100924.72;4496816;28;20030;-65
2023/05/13 02:16:47;;;;;;;1.88;1.77;;;;;;;22.37;35.91;100925.47;4515145;28;20576;-65
2023/05/13 02:18:58;;;;;;;2.13;1.88;;;;;;;22.38;35.92;100930.84;4496305;28;20034;-65
2023/05/13 02:21:11;;;;;;;2.17;1.73;;;;;;;22.37;35.96;100928.34;4497167;28;20046;-66
2023/05/13 02:23:22;;;;;;;1.70;1.60;;;;;;;22.34;35.69;100921.31;4514712;28;20095;-65
2023/05/13 02:25:33;;;;;;;1.65;1.55;;;;;;;22.36;36.10;100923.81;4496398;28;20030;-66
2023/05/13 02:27:43;;;;;;;1.58;1.48;;;;;;;22.37;36.47;100928.34;4514777;28;20053;-66
2023/05/13 02:29:54;;;;;;;1.67;1.58;;;;;;;22.36;36.00;100929.56;4496909;28;20525;-65
2023/05/13 02:32:05;;;;;;;1.30;1.20;;;;;;;22.15;36.42;100901.91;4515081;28;20602;-65
2023/05/13 02:34:15;;;;;;;0.90;0.90;;;;;;;22.32;35.98;100923.72;4495114;28;20145;-65
2023/05/13 02:36:26;;;;;;;0.80;0.80;;;;;;;22.37;36.10;100928.34;4495791;28;20056;-65
2023/05/13 02:38:36;;;;;;;0.90;0.90;;;;;;;22.34;36.22;100927.06;4512690;28;20132;-65
2023/05/13 02:40:48;;;;;;;0.70;0.70;;;;;;;22.36;36.00;100923.81;4512676;28;20804;-66
2023/05/13 02:42:59;;;;;;;1.10;1.00;;;;;;;22.33;35.82;100918.78;4513959;28;20038;-65
2023/05/13 02:45:22;;;;;;;1.30;1.20;;;;;;;22.33;36.26;100915.91;4489185;28;20033;-65
2023/05/13 02:47:38;;;;;;;1.55;1.42;;;;;;;22.36;35.99;100926.69;4512199;28;20042;-66
2023/05/13 02:49:49;;;;;;;1.60;1.50;;;;;;;22.35;36.47;100925.00;4488548;28;20642;-65
2023/05/13 02:51:59;;;;;;;1.60;1.50;;;;;;;22.35;36.57;100925.00;4514129;28;20133;-66
2023/05/13 02:54:15;;;;;;;1.80;1.70;;;;;;;22.30;36.61;100914.63;4514495;28;20029;-65
2023/05/13 02:56:26;;;;;;;1.75;1.65;;;;;;;22.31;36.99;100926.97;4513986;28;20041;-65
2023/05/13 02:58:36;;;;;;;1.33;1.23;;;;;;;22.35;36.87;100925.00;4514028;28;20033;-65
2023/05/13 03:00:47;;;;;;;1.70;1.60;;;;;;;22.32;36.73;100917.13;4497314;28;20588;-66
2023/05/13 03:02:57;;;;;;;1.50;1.40;;;;;;;22.29;36.34;100910.09;4516258;28;20092;-65
2023/05/13 03:05:08;;;;;;;1.40;1.30;;;;;;;22.34;36.43;100926.22;4497919;28;20033;-66
2023/05/13 03:07:19;;;;;;;1.40;1.30;;;;;;;22.32;37.01;100917.97;4514405;28;20049;-66
2023/05/13 03:09:30;;;;;;;1.40;1.30;;;;;;;22.30;37.06;100913.78;4497698;28;20065;-65
2023/05/13 03:11:40;;;;;;;1.33;1.23;;;;;;;22.33;37.08;100924.53;4515948;28;21709;-65
2023/05/13 03:13:51;;;;;;;1.40;1.30;;;;;;;22.30;37.19;100911.75;4515936;28;20125;-66
2023/05/13 03:16:02;;;;;;;1.40;1.30;;;;;;;22.31;37.20;100912.59;4515912;28;20068;-66
2023/05/13 03:18:12;;;;;;;1.23;1.13;;;;;;;22.31;37.68;100915.47;4513420;28;20142;-65
2023/05/13 03:20:23;;;;;;;1.33;1.23;;;;;;;22.31;37.61;100909.72;4497049;28;20038;-66
2023/05/13 03:22:37;;;;;;;1.30;1.20;;;;;;;22.23;37.38;100898.00;4497508;28;20038;-65
2023/05/13 03:24:48;;;;;;;1.40;1.30;;;;;;;22.29;37.19;100915.84;4514448;28;20102;-65
2023/05/13 03:26:58;;;;;;;1.40;1.30;;;;;;;22.29;37.44;100915.00;4497484;28;20113;-65
2023/05/13 03:29:09;;;;;;;1.30;1.20;;;;;;;22.30;37.56;100919.53;4514311;28;20609;-65
2023/05/13 03:31:21;;;;;;;1.48;1.38;;;;;;;22.31;37.27;100926.97;4497172;28;20038;-66
2023/05/13 03:33:31;;;;;;;1.70;1.30;;;;;;;22.28;37.39;100919.09;4490048;28;20109;-66
2023/05/13 03:35:42;;;;;;;1.50;1.40;;;;;;;22.29;37.57;100923.63;4498032;28;20394;-65
2023/05/13 03:37:52;;;;;;;1.30;1.20;;;;;;;22.28;36.95;100927.72;4515289;28;20037;-66
2023/05/13 03:40:03;;;;;;;1.40;1.30;;;;;;;22.23;37.19;100913.63;4514360;28;20038;-65
2023/05/13 03:42:14;;;;;;;1.50;1.40;;;;;;;22.27;37.19;100929.75;4497421;28;20026;-65
2023/05/13 03:44:24;;;;;;;1.30;1.20;;;;;;;22.27;36.73;100928.91;4513724;28;20473;-65
2023/05/13 03:46:35;;;;;;;1.30;1.20;;;;;;;22.26;36.78;100933.00;4515567;28;20033;-66
2023/05/13 03:48:46;;;;;;;1.40;1.30;;;;;;;22.29;36.41;100935.13;4499942;28;20968;-65
2023/05/13 03:50:56;;;;;;;1.40;1.30;;;;;;;22.29;36.65;100932.25;4499890;28;20107;-65
2023/05/13 03:53:09;;;;;;;1.50;1.40;;;;;;;22.28;36.28;100922.78;4516264;28;21167;-66
2023/05/13 03:55:20;;;;;;;1.30;1.20;;;;;;;22.28;36.30;100927.72;4516708;28;20029;-65
2023/05/13 03:57:31;;;;;;;1.50;1.30;;;;;;;22.26;36.20;100930.13;4516071;28;20056;-65
2023/05/13 03:59:41;;;;;;;1.50;1.40;;;;;;;22.25;36.43;100922.72;4499830;28;20014;-66
2023/05/13 04:01:52;;;;;;;1.27;1.17;;;;;;;22.26;36.38;100924.38;4517946;28;20041;-66
2023/05/13 04:04:02;;;;;;;1.30;1.20;;;;;;;22.25;36.05;100931.34;4517997;28;20132;-66
2023/05/13 04:06:15;;;;;;;1.50;1.40;;;;;;;22.26;35.98;100930.13;4498819;28;20633;-65
2023/05/13 04:08:26;;;;;;;1.30;1.20;;;;;;;22.25;36.33;100932.16;4516079;28;20161;-66
2023/05/13 04:10:36;;;;;;;1.70;1.20;;;;;;;22.25;36.02;100937.09;4518017;28;20120;-66
2023/05/13 04:12:47;;;;;;;1.42;1.20;;;;;;;22.22;36.30;100938.66;4517514;28;20038;-67
2023/05/13 04:14:58;;;;;;;1.30;1.20;;;;;;;22.26;36.09;100947.38;4499920;28;20038;-67
2023/05/13 04:17:08;;;;;;;1.70;1.20;;;;;;;22.20;36.04;100944.78;4517433;28;20077;-67
2023/05/13 04:19:18;;;;;;;1.35;1.25;;;;;;;22.26;36.55;100935.88;4517353;28;20045;-66
2023/05/13 04:21:30;;;;;;;1.42;1.33;;;;;;;22.21;36.67;100943.56;4516172;28;20053;-68
2023/05/13 04:23:41;;;;;;;1.48;1.38;;;;;;;22.23;36.47;100939.50;4516439;28;20038;-66
2023/05/13 04:25:51;;;;;;;1.33;1.23;;;;;;;22.18;36.28;100950.03;4499928;28;20030;-65
2023/05/13 04:28:02;;;;;;;1.20;1.10;;;;;;;22.25;36.53;100962.97;4517514;28;20034;-65
2023/05/13 04:30:18;;;;;;;1.35;1.25;;;;;;;22.23;37.07;100962.50;4496886;28;20603;-66
2023/05/13 04:32:30;;;;;;;1.42;1.33;;;;;;;22.21;37.18;100957.13;4515882;28;20508;-66
2023/05/13 04:34:41;;;;;;;1.30;1.20;;;;;;;22.19;36.97;100966.13;4516030;28;20684;-65
2023/05/13 04:36:51;;;;;;;1.30;1.20;;;;;;;22.23;37.30;100971.97;4499200;28;20160;-65
2023/05/13 04:39:02;;;;;;;1.30;1.20;;;;;;;22.15;37.11;100959.41;4515009;28;20076;-65
2023/05/13 04:41:12;;;;;;;1.25;1.15;;;;;;;22.22;37.46;100973.16;4515950;28;20104;-65
2023/05/13 04:43:27;;;;;;;1.15;1.05;;;;;;;22.23;37.58;100974.84;4499295;28;20104;-65
2023/05/13 04:45:40;;;;;;;1.27;1.17;;;;;;;22.21;37.41;100971.50;4500123;28;20279;-65
2023/05/13 04:47:53;;;;;;;1.35;1.20;;;;;;;22.16;37.71;100963.97;4492648;28;20034;-65
2023/05/13 04:50:05;;;;;;;1.20;1.10;;;;;;;22.21;37.81;100974.38;4496494;28;20124;-65
2023/05/13 04:52:16;;;;;;;1.33;1.23;;;;;;;22.20;37.77;100976.41;4516066;28;20034;-64
2023/05/13 04:54:27;;;;;;;1.35;1.25;;;;;;;22.16;37.84;100961.09;4516047;28;20526;-64
2023/05/13 04:56:38;;;;;;;1.27;1.17;;;;;;;22.17;38.42;100959.88;4518074;28;20575;-65
2023/05/13 04:58:49;;;;;;;1.33;1.23;;;;;;;22.20;38.80;100976.41;4515180;28;20496;-65
2023/05/13 05:00:59;;;;;;;1.58;1.48;;;;;;;22.17;38.90;100968.50;4517330;28;20055;-65
2023/05/13 05:03:10;;;;;;;1.40;1.30;;;;;;;22.14;38.68;100959.78;4516735;28;20044;-65
2023/05/13 05:05:21;;;;;;;1.30;1.20;;;;;;;22.20;39.53;100967.78;4500350;28;20044;-66
2023/05/13 05:07:32;;;;;;;1.30;1.20;;;;;;;22.20;39.35;100970.66;4498947;28;20089;-66
2023/05/13 05:09:43;;;;;;;1.65;1.20;;;;;;;22.16;39.78;100972.59;4517305;28;20033;-65
2023/05/13 05:11:53;;;;;;;1.40;1.30;;;;;;;22.18;39.76;100977.97;4516658;28;20620;-66
2023/05/13 05:14:06;;;;;;;1.60;1.50;;;;;;;22.17;39.58;100979.16;4517523;28;20029;-66
2023/05/13 05:16:17;;;;;;;1.50;1.40;;;;;;;22.14;39.71;100972.13;4490864;28;20058;-68
2023/05/13 05:18:28;;;;;;;1.63;1.52;;;;;;;22.13;40.17;100984.00;4516004;28;20034;-65
2023/05/13 05:20:38;;;;;;;1.58;1.45;;;;;;;22.14;40.04;100983.63;4517783;28;20064;-67
2023/05/13 05:22:52;;;;;;;1.50;1.40;;;;;;;22.12;39.32;100970.81;4499180;28;20037;-65
2023/05/13 05:25:06;;;;;;;1.65;1.40;;;;;;;22.17;39.92;100982.88;4499752;28;20037;-65
2023/05/13 05:27:18;;;;;;;1.60;1.50;;;;;;;22.11;40.74;100981.50;4517543;28;20477;-65
2023/05/13 05:29:29;;;;;;;1.60;1.45;;;;;;;22.12;41.06;100979.44;4499218;28;20620;-64
2023/05/13 05:31:40;;;;;;;1.10;1.10;;;;;;;22.11;43.29;100978.63;4489078;28;20089;-65
2023/05/13 05:33:50;;;;;;;1.20;1.10;;;;;;;22.18;43.25;100990.28;4514891;28;20084;-65
2023/05/13 05:36:01;;;;;;;1.10;1.00;;;;;;;22.18;44.85;100998.91;4499147;28;20041;-64
2023/05/13 05:38:11;;;;;;;1.88;1.30;;;;;;;22.18;42.51;100987.41;4517680;28;20099;-65
2023/05/13 05:40:22;;;;;;;1.20;1.10;;;;;;;22.16;45.57;100986.97;4515436;28;20026;-65
2023/05/13 05:42:33;;;;;;;1.20;1.10;;;;;;;22.16;44.78;100986.97;4515022;28;20841;-65
2023/05/13 05:44:44;;;;;;;1.00;1.00;;;;;;;22.17;45.37;100985.75;4497752;28;20148;-65
2023/05/13 05:46:54;;;;;;;1.60;1.30;;;;;;;22.16;46.01;100989.84;4499461;28;20509;-65
2023/05/13 05:49:07;;;;;;;1.30;1.20;;;;;;;22.16;45.49;100984.09;4488980;28;20121;-65
2023/05/13 05:51:18;;;;;;;1.10;1.10;;;;;;;22.07;45.44;100986.28;4515282;28;20135;-65
2023/05/13 05:53:28;;;;;;;1.38;1.27;;;;;;;22.17;45.42;100996.41;4516739;28;20072;-65
2023/05/13 05:55:39;;;;;;;1.10;1.00;;;;;;;22.16;45.33;100989.84;4514786;28;20115;-65
2023/05/13 05:57:49;;;;;;;1.30;1.20;;;;;;;22.19;45.80;100999.78;4516230;28;20033;-66
2023/05/13 06:00:00;;;;;;;1.30;1.20;;;;;;;22.17;45.73;100993.53;4515163;28;20486;-65
2023/05/13 06:02:10;;;;;;;1.33;1.23;;;;;;;22.13;45.23;100986.88;4514962;28;20043;-65
2023/05/13 06:04:21;;;;;;;1.40;1.10;;;;;;;22.15;45.19;100984.47;4498889;28;20030;-66
2023/05/13 06:06:31;;;;;;;1.45;1.35;;;;;;;22.12;45.36;100976.56;4498614;28;20038;-64
2023/05/13 06:08:43;;;;;;;1.55;1.45;;;;;;;22.18;45.56;100990.28;4516869;28;20033;-64
2023/05/13 06:10:54;;;;;;;1.38;1.27;;;;;;;22.17;45.60;100991.50;4516743;28;20572;-65
2023/05/13 06:13:04;;;;;;;1.45;1.35;;;;;;;22.18;44.62;100998.91;4516562;28;20119;-65
2023/05/13 06:15:15;;;;;;;1.75;1.50;;;;;;;22.19;45.57;100999.78;4516474;28;20065;-65
2023/05/13 06:17:27;;;;;;;1.48;1.38;;;;;;;22.17;45.19;101002.16;4488632;28;20038;-65
2023/05/13 06:19:38;;;;;;;1.50;1.40;;;;;;;22.18;45.21;101000.97;4515224;28;20022;-65
2023/05/13 06:21:48;;;;;;;2.08;1.40;;;;;;;22.19;45.19;101012.13;4517176;28;20042;-65
2023/05/13 06:23:59;;;;;;;1.98;1.83;;;;;;;22.19;43.74;101000.63;4515663;28;20033;-65
2023/05/13 06:26:10;;;;;;;1.70;1.60;;;;;;;22.19;44.28;100999.78;4516452;28;20089;-65
2023/05/13 06:28:21;;;;;;;1.80;1.50;;;;;;;22.14;44.24;100997.16;4516715;28;20037;-65
2023/05/13 06:30:35;;;;;;;1.77;1.67;;;;;;;22.17;43.74;101003.00;4517153;28;20026;-65
2023/05/13 06:32:46;;;;;;;1.90;1.70;;;;;;;22.18;44.02;101001.81;4515647;28;20031;-65
2023/05/13 06:34:57;;;;;;;1.63;1.52;;;;;;;22.16;44.28;100994.75;4499029;28;20041;-65
2023/05/13 06:37:08;;;;;;;1.90;1.70;;;;;;;22.19;43.86;100999.78;4497935;28;20045;-65
2023/05/13 06:39:19;;;;;;;1.65;1.55;;;;;;;22.15;43.83;100988.16;4514356;28;20048;-65
2023/05/13 06:41:30;;;;;;;1.67;1.58;;;;;;;22.16;44.77;101001.34;4497585;28;20090;-66
2023/05/13 06:43:47;;;;;;;1.88;1.70;;;;;;;22.18;45.08;101003.84;4497760;28;20129;-67
2023/05/13 06:46:05;;;;;;;1.85;1.67;;;;;;;22.17;45.94;101003.00;4497814;28;20133;-65
2023/05/13 06:48:16;;;;;;;1.77;1.63;;;;;;;22.15;46.16;100993.91;4514452;28;20033;-65
2023/05/13 06:50:26;;;;;;;1.73;1.63;;;;;;;22.17;45.10;101005.88;4515576;28;20168;-65
2023/05/13 06:52:36;;;;;;;1.83;1.70;;;;;;;22.20;44.64;101012.94;4497030;28;20454;-65
2023/05/13 06:54:47;;;;;;;2.50;1.70;;;;;;;22.18;45.02;101012.50;4516381;28;20040;-65
2023/05/13 06:56:57;;;;;;;1.83;1.70;;;;;;;22.19;45.65;101015.00;4515729;28;20045;-65
2023/05/13 06:59:08;;;;;;;1.95;1.80;;;;;;;22.19;46.20;101014.16;4515980;28;20790;-65
2023/05/13 07:01:18;;;;;;;2.10;1.90;;;;;;;22.17;46.93;101014.50;4515680;28;20501;-65
2023/05/13 07:03:29;;;;;;;1.77;1.67;;;;;;;22.18;47.08;101013.31;4516463;28;20568;-66
2023/05/13 07:05:39;;;;;;;2.20;2.00;;;;;;;22.17;46.38;101011.63;4516018;28;20398;-65
2023/05/13 07:07:52;;;;;;;1.90;1.80;;;;;;;22.19;46.12;101012.13;4515257;28;20095;-65
2023/05/13 07:10:03;;;;;;;2.10;1.90;;;;;;;22.20;44.94;101016.66;4515210;28;20051;-65
2023/05/13 07:12:13;;;;;;;2.25;2.05;;;;;;;22.20;45.23;101019.53;4515708;28;20034;-65
2023/05/13 07:14:24;;;;;;;1.88;1.75;;;;;;;22.18;46.20;101001.81;4514378;28;20038;-65
2023/05/13 07:16:35;;;;;;;2.17;1.80;;;;;;;22.18;45.94;100998.91;4516762;28;20029;-65
2023/05/13 07:18:45;;;;;;;1.95;1.85;;;;;;;22.20;45.93;101007.19;4515769;28;20405;-65
2023/05/13 07:20:56;;;;;;;2.20;2.00;;;;;;;22.17;45.12;101003.00;4518247;28;20022;-65
2023/05/13 07:23:06;;;;;;;2.00;1.90;;;;;;;22.20;45.10;101007.19;4521391;28;20079;-65
2023/05/13 07:25:17;;;;;;;1.80;1.70;;;;;;;22.19;44.55;101006.38;4521640;28;20168;-65
2023/05/13 07:27:28;;;;;;;1.70;1.60;;;;;;;22.21;45.44;101014.63;4521335;28;20474;-66
2023/05/13 07:29:38;;;;;;;2.15;1.95;;;;;;;22.19;45.19;101000.63;4521404;28;20393;-66
2023/05/13 07:31:49;;;;;;;2.00;1.80;;;;;;;22.17;45.04;100991.50;4521001;28;20087;-67
2023/05/13 07:33:59;;;;;;;1.98;1.88;;;;;;;22.18;44.92;101000.97;4520560;28;20111;-66
2023/05/13 07:36:09;;;;;;;2.20;2.00;;;;;;;22.20;45.34;101007.19;4521448;28;20021;-66
2023/05/13 07:38:21;;;;;;;1.88;1.77;;;;;;;22.08;45.40;100987.13;4521712;28;20061;-66
2023/05/13 07:40:32;;;;;;;2.20;2.00;;;;;;;22.20;44.64;101004.31;4521246;28;20036;-66
2023/05/13 07:42:42;;;;;;;2.10;1.90;;;;;;;22.20;43.73;101001.44;4521756;28;20053;-67
2023/05/13 07:44:52;;;;;;;2.15;1.95;;;;;;;22.19;44.21;101005.53;4521805;28;20087;-66
2023/05/13 07:47:03;;;;;;;2.25;2.05;;;;;;;22.19;44.48;100999.78;4521628;28;20176;-66
2023/05/13 07:49:14;;;;;;;2.08;1.88;;;;;;;22.19;44.54;100999.78;4521108;28;20510;-66
2023/05/13 07:51:24;;;;;;;2.20;2.00;;;;;;;22.21;44.77;101006.81;4522026;28;20034;-66
2023/05/13 07:53:35;;;;;;;2.38;2.17;;;;;;;22.23;45.08;101002.75;4521926;28;20041;-66
2023/05/13 07:55:46;;;;;;;1.75;1.65;;;;;;;22.18;45.35;100996.03;4519933;28;20033;-66
2023/05/13 07:57:56;;;;;;;2.20;2.00;;;;;;;22.22;45.56;101004.78;4521474;28;20053;-67
2023/05/13 08:00:07;;;;;;;1.90;1.80;;;;;;;22.21;44.06;101003.94;4521208;28;20564;-66
2023/05/13 08:02:23;;;;;;;1.60;1.50;;;;;;;22.21;44.89;101008.88;4517965;28;20042;-66
2023/05/13 08:04:34;;;;;;;1.80;1.70;;;;;;;22.21;44.19;101001.06;4521182;28;20417;-66
2023/05/13 08:06:44;;;;;;;1.85;1.60;;;;;;;22.20;42.43;100993.66;4521108;28;20127;-66
2023/05/13 08:08:54;;;;;;;1.70;1.60;;;;;;;22.21;43.03;101006.81;4520892;28;20029;-66
2023/05/13 08:11:05;;;;;;;1.67;1.38;;;;;;;22.16;43.38;100998.47;4521360;28;20049;-66
2023/05/13 08:13:15;;;;;;;1.70;1.60;;;;;;;22.17;42.13;100993.53;4521184;28;20428;-66
2023/05/13 08:15:27;;;;;;;1.70;1.50;;;;;;;22.19;43.23;101002.66;4521154;28;20026;-67
2023/05/13 08:17:37;;;;;;;1.70;1.60;;;;;;;22.23;43.03;100999.88;4521504;28;20037;-66
2023/05/13 08:19:47;;;;;;;1.92;1.80;;;;;;;22.20;43.04;100995.69;4519432;28;20041;-67
2023/05/13 08:21:58;;;;;;;1.60;1.50;;;;;;;22.23;42.88;101004.41;4521288;28;20033;-66
2023/05/13 08:24:08;;;;;;;2.10;1.90;;;;;;;22.21;42.62;100998.19;4502649;28;20628;-66
2023/05/13 08:26:19;;;;;;;1.75;1.65;;;;;;;22.20;42.39;100990.78;4521566;28;20367;-67
2023/05/13 08:28:29;;;;;;;1.52;1.35;;;;;;;22.22;44.43;100993.28;4521367;28;20516;-66
2023/05/13 08:30:43;;;;;;;1.70;1.60;;;;;;;22.21;43.87;100992.44;4521276;28;20477;-66
2023/05/13 08:32:53;;;;;;;1.98;1.80;;;;;;;22.24;42.18;100996.63;4518000;28;20033;-66
2023/05/13 08:35:04;;;;;;;2.05;1.63;;;;;;;22.23;40.97;100991.25;4516895;28;20037;-66
2023/05/13 08:37:14;;;;;;;1.92;1.60;;;;;;;22.23;40.35;100997.84;4518041;28;20050;-66
2023/05/13 08:39:24;;;;;;;1.60;1.50;;;;;;;22.23;40.73;100997.00;4516560;28;20803;-67
2023/05/13 08:41:36;;;;;;;2.35;1.60;;;;;;;22.20;40.52;100990.78;4518517;28;20149;-67
2023/05/13 08:43:48;;;;;;;2.70;1.65;;;;;;;22.20;42.86;100990.78;4518490;28;20152;-66
2023/05/13 08:46:02;;;;;;;1.88;1.67;;;;;;;22.25;43.03;101000.34;4517980;28;20104;-66
2023/05/13 08:48:15;;;;;;;2.03;1.83;;;;;;;22.19;43.07;100983.38;4517737;28;20646;-65
2023/05/13 08:50:27;;;;;;;2.38;1.80;;;;;;;22.24;41.76;100993.75;4516502;28;20099;-66
2023/05/13 08:52:38;;;;;;;1.90;1.73;;;;;;;22.18;42.50;100981.66;4514457;28;20124;-66
2023/05/13 08:54:49;;;;;;;1.70;1.60;;;;;;;22.25;42.68;100998.28;4518096;28;21035;-66
2023/05/13 08:56:59;;;;;;;2.33;1.70;;;;;;;22.19;41.65;100989.13;4517975;28;20049;-66
2023/05/13 08:59:10;;;;;;;1.52;1.42;;;;;;;22.21;41.14;100992.44;4518079;28;20187;-66
2023/05/13 09:01:23;;;;;;;1.80;1.70;;;;;;;22.25;43.31;100991.72;4517622;28;20382;-65
2023/05/13 09:03:34;;;;;;;1.55;1.40;;;;;;;22.19;42.45;100985.38;4517484;28;20258;-66
2023/05/13 09:05:44;;;;;;;1.70;1.50;;;;;;;22.23;41.42;100985.50;4518087;28;20049;-66
2023/05/13 09:07:56;;;;;;;2.58;1.80;;;;;;;22.26;41.52;100996.25;4517615;28;20059;-66
2023/05/13 09:10:07;;;;;;;1.80;1.70;;;;;;;22.21;41.18;100980.94;4518043;28;20931;-65
2023/05/13 09:12:44;;;;;;;2.10;1.90;;;;;;;22.26;41.83;100987.63;4517749;28;20069;-66
2023/05/13 09:14:54;;;;;;;2.20;2.00;;;;;;;22.25;42.41;100991.72;4517793;28;20092;-66
2023/05/13 09:17:04;;;;;;;2.05;1.92;;;;;;;22.23;41.69;100982.63;4517510;28;20118;-65
2023/05/13 09:19:15;;;;;;;1.98;1.88;;;;;;;22.25;41.60;100985.97;4517661;28;20037;-66
2023/05/13 09:21:30;;;;;;;1.85;1.75;;;;;;;22.18;41.18;100975.91;4517301;28;20034;-66
2023/05/13 09:23:41;;;;;;;1.95;1.85;;;;;;;22.26;42.72;100984.75;4517599;28;20030;-66
2023/05/13 09:25:51;;;;;;;2.03;1.83;;;;;;;22.23;41.72;100983.47;4517633;28;20029;-66
2023/05/13 09:28:04;;;;;;;2.10;1.90;;;;;;;22.27;42.83;100983.53;4517229;28;20038;-66
2023/05/13 09:30:14;;;;;;;2.00;1.80;;;;;;;22.27;42.39;100986.41;4516601;28;20081;-66
2023/05/13 09:32:25;;;;;;;1.60;1.50;;;;;;;22.26;39.95;100979.00;4516500;28;20044;-67
2023/05/13 09:34:35;;;;;;;2.63;1.63;;;;;;;22.25;40.53;100980.22;4515440;28;20069;-67
2023/05/13 09:36:54;;;;;;;1.80;1.70;;;;;;;22.26;41.31;100976.97;4517753;28;20044;-66
2023/05/13 09:39:05;;;;;;;1.58;1.48;;;;;;;22.26;41.65;100976.13;4517185;28;20669;-66
2023/05/13 09:41:18;;;;;;;1.77;1.67;;;;;;;22.27;42.90;100977.78;4517528;28;20055;-67
2023/05/13 09:43:32;;;;;;;2.03;1.83;;;;;;;22.21;42.55;100957.94;4517027;28;20608;-67
2023/05/13 09:45:43;;;;;;;2.08;1.80;;;;;;;22.19;41.82;100960.34;4517841;28;20045;-66
2023/05/13 09:47:54;;;;;;;2.28;1.58;;;;;;;22.27;42.12;100967.13;4517056;28;20109;-66
2023/05/13 09:50:06;;;;;;;1.70;1.60;;;;;;;22.27;43.02;100969.16;4517655;28;20049;-66
2023/05/13 09:52:17;;;;;;;2.15;1.90;;;;;;;22.28;42.47;100970.84;4517804;28;20091;-66
2023/05/13 09:54:33;;;;;;;1.80;1.70;;;;;;;22.27;42.03;100967.13;4517436;28;20509;-66
2023/05/13 09:56:44;;;;;;;1.70;1.60;;;;;;;22.28;42.41;100974.53;4517363;28;20122;-66
2023/05/13 09:58:54;;;;;;;2.47;1.90;;;;;;;22.27;41.17;100967.13;4516658;28;20063;-66
2023/05/13 10:01:05;;;;;;;1.67;1.58;;;;;;;22.18;41.85;100952.09;4517687;28;20041;-66
2023/05/13 10:03:16;;;;;;;2.40;1.90;;;;;;;22.26;42.94;100961.75;4517206;28;20524;-66
2023/05/13 10:05:26;;;;;;;2.03;1.80;;;;;;;22.26;43.10;100962.59;4515562;28;20044;-66
2023/05/13 10:07:38;;;;;;;2.25;1.80;;;;;;;22.28;44.33;100963.03;4517390;28;20041;-65
2023/05/13 10:10:10;;;;;;;1.70;1.60;;;;;;;22.30;42.56;100962.66;4517563;28;20038;-66
2023/05/13 10:12:23;;;;;;;2.08;1.88;;;;;;;22.27;41.53;100963.41;4516744;28;20854;-66